sensor_id;sensor_type;location;lat;lon;timestamp;temperature;humidity
59651;DHT22;45954;49.768;8.636;2022-07-01T00:02:25;19.30;96.20
59651;DHT22;45954;49.768;8.636;2022-07-01T00:04:51;19.60;96.30
59651;DHT22;45954;49.768;8.636;2022-07-01T00:07:17;19.90;96.10
59651;DHT22;45954;49.768;8.636;2022-07-01T00:09:43;20.00;96.10
59651;DHT22;45954;49.768;8.636;2022-07-01T00:12:09;19.80;96.10
59651;DHT22;45954;49.768;8.636;2022-07-01T00:14:36;19.50;96.60
59651;DHT22;45954;49.768;8.636;2022-07-01T00:17:02;19.40;96.20
59651;DHT22;45954;49.768;8.636;2022-07-01T00:19:28;19.30;96.50
59651;DHT22;45954;49.768;8.636;2022-07-01T00:21:54;19.50;97.40
59651;DHT22;45954;49.768;8.636;2022-07-01T00:24:20;19.00;98.00
59651;DHT22;45954;49.768;8.636;2022-07-01T00:26:46;19.10;97.30
59651;DHT22;45954;49.768;8.636;2022-07-01T00:29:12;18.70;97.90
59651;DHT22;45954;49.768;8.636;2022-07-01T00:31:38;18.60;98.30
59651;DHT22;45954;49.768;8.636;2022-07-01T00:34:04;18.80;99.60
59651;DHT22;45954;49.768;8.636;2022-07-01T00:36:30;18.40;99.90
59651;DHT22;45954;49.768;8.636;2022-07-01T00:38:57;18.60;99.00
59651;DHT22;45954;49.768;8.636;2022-07-01T00:41:24;18.80;99.90
59651;DHT22;45954;49.768;8.636;2022-07-01T00:43:50;19.00;98.20
59651;DHT22;45954;49.768;8.636;2022-07-01T00:46:16;18.70;98.40
59651;DHT22;45954;49.768;8.636;2022-07-01T00:48:44;18.30;99.90
59651;DHT22;45954;49.768;8.636;2022-07-01T00:51:10;18.10;99.40
59651;DHT22;45954;49.768;8.636;2022-07-01T00:53:36;18.30;99.90
59651;DHT22;45954;49.768;8.636;2022-07-01T00:56:02;18.70;98.60
59651;DHT22;45954;49.768;8.636;2022-07-01T00:58:30;18.70;99.80
59651;DHT22;45954;49.768;8.636;2022-07-01T01:00:58;18.60;99.90
59651;DHT22;45954;49.768;8.636;2022-07-01T01:03:25;18.30;99.00
59651;DHT22;45954;49.768;8.636;2022-07-01T01:05:52;18.10;99.90
59651;DHT22;45954;49.768;8.636;2022-07-01T01:08:20;18.10;99.90
59651;DHT22;45954;49.768;8.636;2022-07-01T01:10:46;18.00;99.90
59651;DHT22;45954;49.768;8.636;2022-07-01T01:13:13;18.30;99.90
59651;DHT22;45954;49.768;8.636;2022-07-01T01:15:39;18.50;99.90
59651;DHT22;45954;49.768;8.636;2022-07-01T01:18:06;18.30;99.50
59651;DHT22;45954;49.768;8.636;2022-07-01T01:20:34;18.00;99.90
59651;DHT22;45954;49.768;8.636;2022-07-01T01:23:01;18.10;99.90
59651;DHT22;45954;49.768;8.636;2022-07-01T01:25:29;18.20;99.60
59651;DHT22;45954;49.768;8.636;2022-07-01T01:27:54;18.10;99.90
59651;DHT22;45954;49.768;8.636;2022-07-01T01:30:21;18.40;99.90
59651;DHT22;45954;49.768;8.636;2022-07-01T01:32:46;18.40;99.90
59651;DHT22;45954;49.768;8.636;2022-07-01T01:35:12;18.20;99.90
59651;DHT22;45954;49.768;8.636;2022-07-01T01:37:39;18.10;99.90
59651;DHT22;45954;49.768;8.636;2022-07-01T01:40:05;18.00;99.90
59651;DHT22;45954;49.768;8.636;2022-07-01T01:42:32;18.30;99.90
59651;DHT22;45954;49.768;8.636;2022-07-01T01:44:58;18.00;99.90
59651;DHT22;45954;49.768;8.636;2022-07-01T01:47:24;18.00;99.90
59651;DHT22;45954;49.768;8.636;2022-07-01T01:49:50;18.30;99.90
59651;DHT22;45954;49.768;8.636;2022-07-01T01:52:16;18.50;98.60
59651;DHT22;45954;49.768;8.636;2022-07-01T01:54:42;18.20;99.90
59651;DHT22;45954;49.768;8.636;2022-07-01T01:57:08;18.30;99.80
59651;DHT22;45954;49.768;8.636;2022-07-01T01:59:34;18.30;99.40
59651;DHT22;45954;49.768;8.636;2022-07-01T02:02:00;18.00;99.90
59651;DHT22;45954;49.768;8.636;2022-07-01T02:04:25;18.50;99.90
59651;DHT22;45954;49.768;8.636;2022-07-01T02:06:52;18.50;99.70
59651;DHT22;45954;49.768;8.636;2022-07-01T02:09:18;18.30;99.40
59651;DHT22;45954;49.768;8.636;2022-07-01T02:11:44;18.20;99.90
59651;DHT22;45954;49.768;8.636;2022-07-01T02:14:10;18.40;99.50
59651;DHT22;45954;49.768;8.636;2022-07-01T02:16:36;18.30;99.90
59651;DHT22;45954;49.768;8.636;2022-07-01T02:19:02;18.20;99.90
59651;DHT22;45954;49.768;8.636;2022-07-01T02:21:29;18.30;99.70
59651;DHT22;45954;49.768;8.636;2022-07-01T02:23:55;18.70;99.40
59651;DHT22;45954;49.768;8.636;2022-07-01T02:26:21;18.50;99.40
59651;DHT22;45954;49.768;8.636;2022-07-01T02:28:47;17.90;99.70
59651;DHT22;45954;49.768;8.636;2022-07-01T02:31:13;18.00;99.90
59651;DHT22;45954;49.768;8.636;2022-07-01T02:33:39;18.20;99.20
59651;DHT22;45954;49.768;8.636;2022-07-01T02:36:05;18.40;99.50
59651;DHT22;45954;49.768;8.636;2022-07-01T02:38:31;18.40;99.60
59651;DHT22;45954;49.768;8.636;2022-07-01T02:40:57;18.50;99.20
59651;DHT22;45954;49.768;8.636;2022-07-01T02:43:23;18.60;99.50
59651;DHT22;45954;49.768;8.636;2022-07-01T02:45:48;18.70;99.20
59651;DHT22;45954;49.768;8.636;2022-07-01T02:48:14;18.70;99.50
59651;DHT22;45954;49.768;8.636;2022-07-01T02:50:40;18.50;98.80
59651;DHT22;45954;49.768;8.636;2022-07-01T02:53:06;18.30;99.70
59651;DHT22;45954;49.768;8.636;2022-07-01T02:55:32;18.40;99.80
59651;DHT22;45954;49.768;8.636;2022-07-01T02:57:58;18.70;98.70
59651;DHT22;45954;49.768;8.636;2022-07-01T03:00:24;18.50;98.40
59651;DHT22;45954;49.768;8.636;2022-07-01T03:02:51;18.50;98.80
59651;DHT22;45954;49.768;8.636;2022-07-01T03:05:17;18.10;99.80
59651;DHT22;45954;49.768;8.636;2022-07-01T03:07:43;18.10;98.90
59651;DHT22;45954;49.768;8.636;2022-07-01T03:10:10;17.90;99.20
59651;DHT22;45954;49.768;8.636;2022-07-01T03:12:37;17.60;99.90
59651;DHT22;45954;49.768;8.636;2022-07-01T03:17:38;18.10;99.50
59651;DHT22;45954;49.768;8.636;2022-07-01T03:20:07;17.80;99.50
59651;DHT22;45954;49.768;8.636;2022-07-01T03:22:35;17.90;99.90
59651;DHT22;45954;49.768;8.636;2022-07-01T03:25:02;17.80;99.50
59651;DHT22;45954;49.768;8.636;2022-07-01T03:27:30;18.00;99.90
59651;DHT22;45954;49.768;8.636;2022-07-01T03:29:56;18.30;99.10
59651;DHT22;45954;49.768;8.636;2022-07-01T03:32:22;18.30;98.80
59651;DHT22;45954;49.768;8.636;2022-07-01T03:34:50;17.80;99.20
59651;DHT22;45954;49.768;8.636;2022-07-01T03:37:19;17.90;99.40
59651;DHT22;45954;49.768;8.636;2022-07-01T03:39:46;17.70;99.70
59651;DHT22;45954;49.768;8.636;2022-07-01T03:42:12;17.90;99.10
59651;DHT22;45954;49.768;8.636;2022-07-01T03:44:38;17.60;99.40
59651;DHT22;45954;49.768;8.636;2022-07-01T03:47:05;17.80;99.60
59651;DHT22;45954;49.768;8.636;2022-07-01T03:49:35;17.80;99.70
59651;DHT22;45954;49.768;8.636;2022-07-01T03:52:03;17.70;99.80
59651;DHT22;45954;49.768;8.636;2022-07-01T03:54:30;17.80;99.40
59651;DHT22;45954;49.768;8.636;2022-07-01T03:57:02;17.80;99.30
59651;DHT22;45954;49.768;8.636;2022-07-01T03:59:32;17.60;99.90
59651;DHT22;45954;49.768;8.636;2022-07-01T04:01:59;17.70;99.60
59651;DHT22;45954;49.768;8.636;2022-07-01T04:04:26;17.60;99.70
59651;DHT22;45954;49.768;8.636;2022-07-01T04:06:54;17.50;99.70
59651;DHT22;45954;49.768;8.636;2022-07-01T04:09:21;18.00;99.60
59651;DHT22;45954;49.768;8.636;2022-07-01T04:11:49;18.10;98.70
59651;DHT22;45954;49.768;8.636;2022-07-01T04:14:16;18.10;99.20
59651;DHT22;45954;49.768;8.636;2022-07-01T04:16:43;18.30;98.80
59651;DHT22;45954;49.768;8.636;2022-07-01T04:19:11;17.80;98.80
59651;DHT22;45954;49.768;8.636;2022-07-01T04:21:39;17.60;99.60
59651;DHT22;45954;49.768;8.636;2022-07-01T04:24:24;18.00;99.20
59651;DHT22;45954;49.768;8.636;2022-07-01T04:26:51;18.30;98.80
59651;DHT22;45954;49.768;8.636;2022-07-01T04:29:18;18.50;98.40
59651;DHT22;45954;49.768;8.636;2022-07-01T04:31:45;18.30;97.90
59651;DHT22;45954;49.768;8.636;2022-07-01T04:34:11;18.40;98.00
59651;DHT22;45954;49.768;8.636;2022-07-01T04:36:38;18.40;97.80
59651;DHT22;45954;49.768;8.636;2022-07-01T04:39:05;18.40;98.30
59651;DHT22;45954;49.768;8.636;2022-07-01T04:41:32;18.40;97.60
59651;DHT22;45954;49.768;8.636;2022-07-01T04:44:18;18.30;97.60
59651;DHT22;45954;49.768;8.636;2022-07-01T04:46:44;18.50;97.80
59651;DHT22;45954;49.768;8.636;2022-07-01T04:49:10;18.20;97.50
59651;DHT22;45954;49.768;8.636;2022-07-01T04:51:36;18.30;97.00
59651;DHT22;45954;49.768;8.636;2022-07-01T04:54:03;17.80;97.50
59651;DHT22;45954;49.768;8.636;2022-07-01T04:56:30;17.70;97.90
59651;DHT22;45954;49.768;8.636;2022-07-01T04:58:56;17.20;98.90
59651;DHT22;45954;49.768;8.636;2022-07-01T05:01:22;17.60;98.70
59651;DHT22;45954;49.768;8.636;2022-07-01T05:03:49;18.00;98.10
59651;DHT22;45954;49.768;8.636;2022-07-01T05:06:15;17.90;97.90
59651;DHT22;45954;49.768;8.636;2022-07-01T05:08:41;18.10;98.00
59651;DHT22;45954;49.768;8.636;2022-07-01T05:11:07;18.30;97.60
59651;DHT22;45954;49.768;8.636;2022-07-01T05:13:33;18.40;97.40
59651;DHT22;45954;49.768;8.636;2022-07-01T05:15:59;18.60;97.10
59651;DHT22;45954;49.768;8.636;2022-07-01T05:18:26;18.70;97.00
59651;DHT22;45954;49.768;8.636;2022-07-01T05:21:10;18.70;97.30
59651;DHT22;45954;49.768;8.636;2022-07-01T05:23:54;18.80;96.80
59651;DHT22;45954;49.768;8.636;2022-07-01T05:26:20;18.60;96.80
59651;DHT22;45954;49.768;8.636;2022-07-01T05:28:47;18.80;95.90
59651;DHT22;45954;49.768;8.636;2022-07-01T05:31:13;18.90;96.80
59651;DHT22;45954;49.768;8.636;2022-07-01T05:33:39;19.10;96.40
59651;DHT22;45954;49.768;8.636;2022-07-01T05:36:05;19.00;96.00
59651;DHT22;45954;49.768;8.636;2022-07-01T05:38:31;19.20;96.10
59651;DHT22;45954;49.768;8.636;2022-07-01T05:40:57;19.00;96.50
59651;DHT22;45954;49.768;8.636;2022-07-01T05:43:23;18.20;98.20
59651;DHT22;45954;49.768;8.636;2022-07-01T05:45:49;18.10;98.00
59651;DHT22;45954;49.768;8.636;2022-07-01T05:48:15;18.30;98.20
59651;DHT22;45954;49.768;8.636;2022-07-01T05:50:41;18.70;96.40
59651;DHT22;45954;49.768;8.636;2022-07-01T05:53:07;18.80;96.90
59651;DHT22;45954;49.768;8.636;2022-07-01T05:55:33;18.80;96.10
59651;DHT22;45954;49.768;8.636;2022-07-01T05:57:59;18.80;97.10
59651;DHT22;45954;49.768;8.636;2022-07-01T06:00:27;18.90;96.60
59651;DHT22;45954;49.768;8.636;2022-07-01T06:02:54;18.20;97.80
59651;DHT22;45954;49.768;8.636;2022-07-01T06:05:20;18.00;97.20
59651;DHT22;45954;49.768;8.636;2022-07-01T06:07:46;18.30;97.70
59651;DHT22;45954;49.768;8.636;2022-07-01T06:10:12;18.50;97.20
59651;DHT22;45954;49.768;8.636;2022-07-01T06:12:39;18.20;98.00
59651;DHT22;45954;49.768;8.636;2022-07-01T06:15:07;17.80;97.20
59651;DHT22;45954;49.768;8.636;2022-07-01T06:17:35;18.10;97.60
59651;DHT22;45954;49.768;8.636;2022-07-01T06:20:01;18.00;96.60
59651;DHT22;45954;49.768;8.636;2022-07-01T06:22:27;18.40;97.30
59651;DHT22;45954;49.768;8.636;2022-07-01T06:24:53;18.70;96.60
59651;DHT22;45954;49.768;8.636;2022-07-01T06:27:19;19.00;95.80
59651;DHT22;45954;49.768;8.636;2022-07-01T06:29:45;18.90;95.20
59651;DHT22;45954;49.768;8.636;2022-07-01T06:32:11;18.60;97.00
59651;DHT22;45954;49.768;8.636;2022-07-01T06:34:37;18.40;97.60
59651;DHT22;45954;49.768;8.636;2022-07-01T06:37:04;18.40;96.20
59651;DHT22;45954;49.768;8.636;2022-07-01T06:39:30;18.40;96.60
59651;DHT22;45954;49.768;8.636;2022-07-01T06:41:57;18.60;96.80
59651;DHT22;45954;49.768;8.636;2022-07-01T06:44:22;18.50;96.00
59651;DHT22;45954;49.768;8.636;2022-07-01T06:46:49;18.30;97.10
59651;DHT22;45954;49.768;8.636;2022-07-01T06:49:15;18.30;96.50
59651;DHT22;45954;49.768;8.636;2022-07-01T06:51:41;18.50;96.40
59651;DHT22;45954;49.768;8.636;2022-07-01T06:54:07;18.60;96.30
59651;DHT22;45954;49.768;8.636;2022-07-01T06:56:34;18.60;96.30
59651;DHT22;45954;49.768;8.636;2022-07-01T06:59:00;18.60;96.50
59651;DHT22;45954;49.768;8.636;2022-07-01T07:01:27;18.30;97.80
59651;DHT22;45954;49.768;8.636;2022-07-01T07:03:54;17.90;98.60
59651;DHT22;45954;49.768;8.636;2022-07-01T07:06:21;18.00;98.90
59651;DHT22;45954;49.768;8.636;2022-07-01T07:08:47;18.00;99.50
59651;DHT22;45954;49.768;8.636;2022-07-01T07:11:13;18.20;99.90
59651;DHT22;45954;49.768;8.636;2022-07-01T07:13:41;18.50;98.80
59651;DHT22;45954;49.768;8.636;2022-07-01T07:16:07;18.60;98.80
59651;DHT22;45954;49.768;8.636;2022-07-01T07:18:34;18.70;98.90
59651;DHT22;45954;49.768;8.636;2022-07-01T07:21:00;18.70;99.60
59651;DHT22;45954;49.768;8.636;2022-07-01T07:23:26;18.80;99.60
59651;DHT22;45954;49.768;8.636;2022-07-01T07:25:52;18.80;98.40
59651;DHT22;45954;49.768;8.636;2022-07-01T07:28:18;18.50;99.90
59651;DHT22;45954;49.768;8.636;2022-07-01T07:30:44;18.60;99.30
59651;DHT22;45954;49.768;8.636;2022-07-01T07:33:10;18.70;99.90
59651;DHT22;45954;49.768;8.636;2022-07-01T07:35:36;18.60;99.70
59651;DHT22;45954;49.768;8.636;2022-07-01T07:38:01;18.50;99.70
59651;DHT22;45954;49.768;8.636;2022-07-01T07:40:27;18.60;99.90
59651;DHT22;45954;49.768;8.636;2022-07-01T07:42:53;18.60;99.70
59651;DHT22;45954;49.768;8.636;2022-07-01T07:45:19;18.50;99.00
59651;DHT22;45954;49.768;8.636;2022-07-01T07:47:47;18.40;98.80
59651;DHT22;45954;49.768;8.636;2022-07-01T07:50:15;18.40;99.90
59651;DHT22;45954;49.768;8.636;2022-07-01T07:52:41;18.60;99.30
59651;DHT22;45954;49.768;8.636;2022-07-01T07:55:09;18.70;99.70
59651;DHT22;45954;49.768;8.636;2022-07-01T07:57:36;18.70;99.40
59651;DHT22;45954;49.768;8.636;2022-07-01T08:00:04;18.70;99.90
59651;DHT22;45954;49.768;8.636;2022-07-01T08:02:31;18.70;99.40
59651;DHT22;45954;49.768;8.636;2022-07-01T08:04:57;18.40;99.90
59651;DHT22;45954;49.768;8.636;2022-07-01T08:07:23;18.50;99.90
59651;DHT22;45954;49.768;8.636;2022-07-01T08:09:48;18.40;99.60
59651;DHT22;45954;49.768;8.636;2022-07-01T08:12:15;18.30;99.90
59651;DHT22;45954;49.768;8.636;2022-07-01T08:14:42;18.60;99.90
59651;DHT22;45954;49.768;8.636;2022-07-01T08:17:09;18.80;99.90
59651;DHT22;45954;49.768;8.636;2022-07-01T08:19:35;18.90;99.90
59651;DHT22;45954;49.768;8.636;2022-07-01T08:22:01;18.90;99.90
59651;DHT22;45954;49.768;8.636;2022-07-01T08:24:27;19.00;99.70
59651;DHT22;45954;49.768;8.636;2022-07-01T08:26:52;18.80;99.30
59651;DHT22;45954;49.768;8.636;2022-07-01T08:29:18;18.60;99.40
59651;DHT22;45954;49.768;8.636;2022-07-01T08:31:44;18.40;99.90
59651;DHT22;45954;49.768;8.636;2022-07-01T08:34:10;18.70;99.90
59651;DHT22;45954;49.768;8.636;2022-07-01T08:36:36;18.30;99.70
59651;DHT22;45954;49.768;8.636;2022-07-01T08:39:03;18.50;99.90
59651;DHT22;45954;49.768;8.636;2022-07-01T08:41:29;19.00;99.90
59651;DHT22;45954;49.768;8.636;2022-07-01T08:43:55;19.20;99.90
59651;DHT22;45954;49.768;8.636;2022-07-01T08:46:22;19.10;99.90
59651;DHT22;45954;49.768;8.636;2022-07-01T08:48:49;18.50;99.90
59651;DHT22;45954;49.768;8.636;2022-07-01T08:51:15;18.20;99.90
59651;DHT22;45954;49.768;8.636;2022-07-01T08:53:41;18.20;99.90
59651;DHT22;45954;49.768;8.636;2022-07-01T08:56:07;18.50;99.90
59651;DHT22;45954;49.768;8.636;2022-07-01T08:58:52;18.10;99.50
59651;DHT22;45954;49.768;8.636;2022-07-01T09:01:20;18.00;99.90
59651;DHT22;45954;49.768;8.636;2022-07-01T09:03:51;17.90;99.90
59651;DHT22;45954;49.768;8.636;2022-07-01T09:06:23;17.90;99.80
59651;DHT22;45954;49.768;8.636;2022-07-01T09:08:52;18.10;99.90
59651;DHT22;45954;49.768;8.636;2022-07-01T09:11:22;18.10;99.50
59651;DHT22;45954;49.768;8.636;2022-07-01T09:14:12;18.30;99.20
59651;DHT22;45954;49.768;8.636;2022-07-01T09:16:48;18.00;99.90
59651;DHT22;45954;49.768;8.636;2022-07-01T09:19:20;17.90;99.90
59651;DHT22;45954;49.768;8.636;2022-07-01T09:21:52;17.70;99.90
59651;DHT22;45954;49.768;8.636;2022-07-01T09:27:03;17.80;99.90
59651;DHT22;45954;49.768;8.636;2022-07-01T09:29:37;17.70;99.90
59651;DHT22;45954;49.768;8.636;2022-07-01T09:32:07;18.00;99.90
59651;DHT22;45954;49.768;8.636;2022-07-01T09:34:39;18.40;99.90
59651;DHT22;45954;49.768;8.636;2022-07-01T09:37:18;18.70;99.90
59651;DHT22;45954;49.768;8.636;2022-07-01T09:39:50;18.90;99.30
59651;DHT22;45954;49.768;8.636;2022-07-01T09:42:19;18.90;98.70
59651;DHT22;45954;49.768;8.636;2022-07-01T09:45:02;18.70;99.90
59651;DHT22;45954;49.768;8.636;2022-07-01T09:47:34;19.00;99.20
59651;DHT22;45954;49.768;8.636;2022-07-01T09:50:04;19.30;99.20
59651;DHT22;45954;49.768;8.636;2022-07-01T09:52:30;19.30;98.10
59651;DHT22;45954;49.768;8.636;2022-07-01T09:54:56;19.30;99.00
59651;DHT22;45954;49.768;8.636;2022-07-01T09:57:23;19.30;98.80
59651;DHT22;45954;49.768;8.636;2022-07-01T09:59:50;19.60;98.90
59651;DHT22;45954;49.768;8.636;2022-07-01T10:02:21;19.70;98.50
59651;DHT22;45954;49.768;8.636;2022-07-01T10:04:51;19.90;97.00
59651;DHT22;45954;49.768;8.636;2022-07-01T10:10:44;20.40;97.30
59651;DHT22;45954;49.768;8.636;2022-07-01T10:13:16;20.60;96.70
59651;DHT22;45954;49.768;8.636;2022-07-01T10:15:46;20.40;97.10
59651;DHT22;45954;49.768;8.636;2022-07-01T10:18:27;20.50;97.00
59651;DHT22;45954;49.768;8.636;2022-07-01T10:20:56;20.50;95.70
59651;DHT22;45954;49.768;8.636;2022-07-01T10:23:25;20.10;96.40
59651;DHT22;45954;49.768;8.636;2022-07-01T10:26:02;19.90;94.40
59651;DHT22;45954;49.768;8.636;2022-07-01T10:28:43;20.20;94.70
59651;DHT22;45954;49.768;8.636;2022-07-01T10:31:11;20.30;95.40
59651;DHT22;45954;49.768;8.636;2022-07-01T10:33:55;20.30;95.60
59651;DHT22;45954;49.768;8.636;2022-07-01T10:41:55;20.10;95.00
59651;DHT22;45954;49.768;8.636;2022-07-01T10:44:26;20.20;94.20
59651;DHT22;45954;49.768;8.636;2022-07-01T10:47:04;20.50;95.40
59651;DHT22;45954;49.768;8.636;2022-07-01T10:52:13;20.10;93.00
59651;DHT22;45954;49.768;8.636;2022-07-01T10:59:53;20.80;94.10
59651;DHT22;45954;49.768;8.636;2022-07-01T11:02:42;20.90;92.70
59651;DHT22;45954;49.768;8.636;2022-07-01T11:05:10;20.40;90.70
59651;DHT22;45954;49.768;8.636;2022-07-01T11:07:42;20.30;92.20
59651;DHT22;45954;49.768;8.636;2022-07-01T11:10:15;21.00;92.80
59651;DHT22;45954;49.768;8.636;2022-07-01T11:12:43;21.20;93.10
59651;DHT22;45954;49.768;8.636;2022-07-01T11:15:11;21.50;91.10
59651;DHT22;45954;49.768;8.636;2022-07-01T11:17:47;21.10;91.80
59651;DHT22;45954;49.768;8.636;2022-07-01T11:20:16;21.40;91.30
59651;DHT22;45954;49.768;8.636;2022-07-01T11:22:42;21.70;91.10
59651;DHT22;45954;49.768;8.636;2022-07-01T11:25:11;21.50;92.20
59651;DHT22;45954;49.768;8.636;2022-07-01T11:27:38;21.60;91.60
59651;DHT22;45954;49.768;8.636;2022-07-01T11:30:10;21.80;90.50
59651;DHT22;45954;49.768;8.636;2022-07-01T11:32:41;21.80;89.80
59651;DHT22;45954;49.768;8.636;2022-07-01T11:35:15;21.60;90.10
59651;DHT22;45954;49.768;8.636;2022-07-01T11:38:13;22.10;90.60
59651;DHT22;45954;49.768;8.636;2022-07-01T11:41:01;22.30;87.40
59651;DHT22;45954;49.768;8.636;2022-07-01T11:43:39;22.20;86.50
59651;DHT22;45954;49.768;8.636;2022-07-01T11:46:07;22.30;87.00
59651;DHT22;45954;49.768;8.636;2022-07-01T11:48:39;21.60;89.50
59651;DHT22;45954;49.768;8.636;2022-07-01T11:51:14;21.40;89.20
59651;DHT22;45954;49.768;8.636;2022-07-01T11:53:44;21.10;87.60
59651;DHT22;45954;49.768;8.636;2022-07-01T11:56:12;21.00;89.60
59651;DHT22;45954;49.768;8.636;2022-07-01T11:58:51;20.70;90.20
59651;DHT22;45954;49.768;8.636;2022-07-01T12:01:50;21.00;89.60
59651;DHT22;45954;49.768;8.636;2022-07-01T12:04:17;21.70;88.30
59651;DHT22;45954;49.768;8.636;2022-07-01T12:06:43;22.40;87.40
59651;DHT22;45954;49.768;8.636;2022-07-01T12:09:18;23.00;85.70
59651;DHT22;45954;49.768;8.636;2022-07-01T12:11:49;23.10;87.50
59651;DHT22;45954;49.768;8.636;2022-07-01T12:14:27;23.50;86.40
59651;DHT22;45954;49.768;8.636;2022-07-01T12:17:05;24.00;82.70
59651;DHT22;45954;49.768;8.636;2022-07-01T12:19:40;24.30;79.80
59651;DHT22;45954;49.768;8.636;2022-07-01T12:22:10;24.10;79.00
59651;DHT22;45954;49.768;8.636;2022-07-01T12:24:37;24.20;81.50
59651;DHT22;45954;49.768;8.636;2022-07-01T12:27:05;24.00;80.10
59651;DHT22;45954;49.768;8.636;2022-07-01T12:29:50;23.80;78.50
59651;DHT22;45954;49.768;8.636;2022-07-01T12:32:25;22.30;81.80
59651;DHT22;45954;49.768;8.636;2022-07-01T12:34:58;21.80;84.00
59651;DHT22;45954;49.768;8.636;2022-07-01T12:37:53;22.40;82.40
59651;DHT22;45954;49.768;8.636;2022-07-01T12:40:24;22.10;81.20
59651;DHT22;45954;49.768;8.636;2022-07-01T12:42:54;22.00;83.10
59651;DHT22;45954;49.768;8.636;2022-07-01T12:45:25;21.60;83.10
59651;DHT22;45954;49.768;8.636;2022-07-01T12:47:55;22.10;83.20
59651;DHT22;45954;49.768;8.636;2022-07-01T12:50:27;22.80;83.10
59651;DHT22;45954;49.768;8.636;2022-07-01T12:55:23;23.80;78.30
59651;DHT22;45954;49.768;8.636;2022-07-01T12:57:54;24.30;79.10
59651;DHT22;45954;49.768;8.636;2022-07-01T13:00:23;24.10;80.70
59651;DHT22;45954;49.768;8.636;2022-07-01T13:02:57;24.60;78.60
59651;DHT22;45954;49.768;8.636;2022-07-01T13:05:24;24.80;76.00
59651;DHT22;45954;49.768;8.636;2022-07-01T13:07:50;23.80;78.00
59651;DHT22;45954;49.768;8.636;2022-07-01T13:10:18;23.80;77.40
59651;DHT22;45954;49.768;8.636;2022-07-01T13:12:45;24.00;76.90
59651;DHT22;45954;49.768;8.636;2022-07-01T13:15:13;24.50;75.20
59651;DHT22;45954;49.768;8.636;2022-07-01T13:17:40;24.60;76.80
59651;DHT22;45954;49.768;8.636;2022-07-01T13:20:07;24.90;74.60
59651;DHT22;45954;49.768;8.636;2022-07-01T13:22:34;24.60;75.60
59651;DHT22;45954;49.768;8.636;2022-07-01T13:25:01;24.50;74.40
59651;DHT22;45954;49.768;8.636;2022-07-01T13:27:27;24.30;76.80
59651;DHT22;45954;49.768;8.636;2022-07-01T13:29:54;24.50;76.00
59651;DHT22;45954;49.768;8.636;2022-07-01T13:32:20;24.70;74.40
59651;DHT22;45954;49.768;8.636;2022-07-01T13:34:46;24.30;74.70
59651;DHT22;45954;49.768;8.636;2022-07-01T13:37:13;24.00;77.70
59651;DHT22;45954;49.768;8.636;2022-07-01T13:39:39;23.30;75.80
59651;DHT22;45954;49.768;8.636;2022-07-01T13:42:05;22.70;77.60
59651;DHT22;45954;49.768;8.636;2022-07-01T13:44:31;22.30;78.90
59651;DHT22;45954;49.768;8.636;2022-07-01T13:46:57;22.20;81.00
59651;DHT22;45954;49.768;8.636;2022-07-01T13:49:24;22.20;78.50
59651;DHT22;45954;49.768;8.636;2022-07-01T13:51:50;22.10;80.20
59651;DHT22;45954;49.768;8.636;2022-07-01T13:54:16;22.20;81.80
59651;DHT22;45954;49.768;8.636;2022-07-01T13:56:42;22.40;79.40
59651;DHT22;45954;49.768;8.636;2022-07-01T13:59:11;22.30;80.30
59651;DHT22;45954;49.768;8.636;2022-07-01T14:01:38;22.50;80.10
59651;DHT22;45954;49.768;8.636;2022-07-01T14:04:04;22.30;80.60
59651;DHT22;45954;49.768;8.636;2022-07-01T14:06:30;22.00;80.90
59651;DHT22;45954;49.768;8.636;2022-07-01T14:08:56;22.30;78.80
59651;DHT22;45954;49.768;8.636;2022-07-01T14:11:22;21.90;81.20
59651;DHT22;45954;49.768;8.636;2022-07-01T14:13:48;21.90;81.00
59651;DHT22;45954;49.768;8.636;2022-07-01T14:16:14;21.50;81.30
59651;DHT22;45954;49.768;8.636;2022-07-01T14:18:40;21.70;82.10
59651;DHT22;45954;49.768;8.636;2022-07-01T14:21:06;21.90;81.70
59651;DHT22;45954;49.768;8.636;2022-07-01T14:23:33;21.60;82.80
59651;DHT22;45954;49.768;8.636;2022-07-01T14:25:59;21.60;85.50
59651;DHT22;45954;49.768;8.636;2022-07-01T14:28:26;21.50;84.00
59651;DHT22;45954;49.768;8.636;2022-07-01T14:30:52;21.30;85.60
59651;DHT22;45954;49.768;8.636;2022-07-01T14:33:20;21.10;89.80
59651;DHT22;45954;49.768;8.636;2022-07-01T14:35:47;20.40;89.50
59651;DHT22;45954;49.768;8.636;2022-07-01T14:38:13;20.80;91.90
59651;DHT22;45954;49.768;8.636;2022-07-01T14:40:41;21.10;93.10
59651;DHT22;45954;49.768;8.636;2022-07-01T14:43:08;21.40;93.90
59651;DHT22;45954;49.768;8.636;2022-07-01T14:45:34;21.80;93.70
59651;DHT22;45954;49.768;8.636;2022-07-01T14:48:00;22.50;91.40
59651;DHT22;45954;49.768;8.636;2022-07-01T14:50:26;23.30;91.00
59651;DHT22;45954;49.768;8.636;2022-07-01T14:52:55;24.10;88.50
59651;DHT22;45954;49.768;8.636;2022-07-01T14:55:21;24.60;87.10
59651;DHT22;45954;49.768;8.636;2022-07-01T14:57:47;24.70;85.30
59651;DHT22;45954;49.768;8.636;2022-07-01T15:00:13;24.70;84.90
59651;DHT22;45954;49.768;8.636;2022-07-01T15:02:40;25.70;82.90
59651;DHT22;45954;49.768;8.636;2022-07-01T15:05:06;26.10;80.30
59651;DHT22;45954;49.768;8.636;2022-07-01T15:07:32;25.30;80.50
59651;DHT22;45954;49.768;8.636;2022-07-01T15:09:58;25.50;77.80
59651;DHT22;45954;49.768;8.636;2022-07-01T15:12:28;25.50;78.10
59651;DHT22;45954;49.768;8.636;2022-07-01T15:14:54;26.50;76.40
59651;DHT22;45954;49.768;8.636;2022-07-01T15:17:25;26.10;74.10
59651;DHT22;45954;49.768;8.636;2022-07-01T15:19:52;26.20;75.00
59651;DHT22;45954;49.768;8.636;2022-07-01T15:22:18;26.50;73.20
59651;DHT22;45954;49.768;8.636;2022-07-01T15:24:44;26.90;71.40
59651;DHT22;45954;49.768;8.636;2022-07-01T15:27:10;26.10;70.00
59651;DHT22;45954;49.768;8.636;2022-07-01T15:29:37;26.50;73.50
59651;DHT22;45954;49.768;8.636;2022-07-01T15:32:05;27.10;71.40
59651;DHT22;45954;49.768;8.636;2022-07-01T15:34:31;26.90;72.30
59651;DHT22;45954;49.768;8.636;2022-07-01T15:36:57;26.50;70.40
59651;DHT22;45954;49.768;8.636;2022-07-01T15:39:23;26.10;70.80
59651;DHT22;45954;49.768;8.636;2022-07-01T15:41:49;25.90;72.10
59651;DHT22;45954;49.768;8.636;2022-07-01T15:44:15;25.70;72.90
59651;DHT22;45954;49.768;8.636;2022-07-01T15:46:41;25.40;73.20
59651;DHT22;45954;49.768;8.636;2022-07-01T15:49:07;24.80;72.60
59651;DHT22;45954;49.768;8.636;2022-07-01T15:51:34;24.60;74.20
59651;DHT22;45954;49.768;8.636;2022-07-01T15:54:09;24.40;73.20
59651;DHT22;45954;49.768;8.636;2022-07-01T15:56:35;24.20;74.50
59651;DHT22;45954;49.768;8.636;2022-07-01T15:59:02;24.30;75.00
59651;DHT22;45954;49.768;8.636;2022-07-01T16:01:28;24.40;75.10